createdAt,value
2018-04-08T00:00:28.268Z,9.30
2018-04-08T00:03:50.764Z,9.30
2018-04-08T00:07:13.204Z,9.30
2018-04-08T00:10:35.635Z,9.30
2018-04-08T00:13:58.079Z,9.20
2018-04-08T00:17:20.515Z,9.10
2018-04-08T00:20:42.959Z,9.20
2018-04-08T00:24:05.410Z,9.10
2018-04-08T00:27:28.617Z,9.00
2018-04-08T00:30:51.060Z,9.00
2018-04-08T00:34:13.495Z,9.00
2018-04-08T00:37:35.943Z,8.90
2018-04-08T00:40:58.400Z,8.90
2018-04-08T00:44:20.840Z,8.90
2018-04-08T00:47:43.332Z,8.80
2018-04-08T00:51:05.763Z,8.70
2018-04-08T00:54:32.035Z,8.70
2018-04-08T00:57:54.483Z,8.70
2018-04-08T01:01:16.915Z,8.60
2018-04-08T01:04:39.364Z,8.60
2018-04-08T01:08:01.808Z,8.50
2018-04-08T01:11:24.243Z,8.50
2018-04-08T01:14:46.696Z,8.50
2018-04-08T01:18:09.903Z,8.40
2018-04-08T01:21:32.339Z,8.30
2018-04-08T01:24:55.561Z,8.20
2018-04-08T01:28:18.013Z,8.30
2018-04-08T01:31:40.503Z,8.20
2018-04-08T01:35:02.967Z,8.20
2018-04-08T01:38:25.439Z,8.10
2018-04-08T01:41:47.904Z,8.10
2018-04-08T01:45:10.336Z,8.10
2018-04-08T01:48:32.791Z,8.10
2018-04-08T01:51:55.227Z,8.00
2018-04-08T01:55:17.671Z,8.00
2018-04-08T01:58:40.232Z,7.90
2018-04-08T02:02:02.664Z,7.90
2018-04-08T02:05:25.107Z,7.80
2018-04-08T02:08:48.331Z,7.80
2018-04-08T02:12:10.771Z,7.80
2018-04-08T02:15:33.212Z,7.80
2018-04-08T02:18:56.424Z,7.70
2018-04-08T02:22:18.867Z,7.60
2018-04-08T02:25:42.113Z,7.60
2018-04-08T02:29:05.319Z,7.60
2018-04-08T02:32:28.569Z,7.50
2018-04-08T02:35:51.017Z,7.50
2018-04-08T02:39:13.520Z,7.50
2018-04-08T02:42:35.948Z,7.40
2018-04-08T02:45:58.401Z,7.40
2018-04-08T02:49:20.841Z,7.40
2018-04-08T02:52:44.067Z,7.30
2018-04-08T02:56:06.512Z,7.30
2018-04-08T02:59:28.965Z,7.20
2018-04-08T03:02:52.175Z,7.20
2018-04-08T03:06:14.625Z,7.20
2018-04-08T03:09:37.055Z,7.20
2018-04-08T03:13:00.270Z,7.10
2018-04-08T03:16:22.704Z,7.10
2018-04-08T03:19:45.911Z,7.00
2018-04-08T03:23:08.360Z,7.00
2018-04-08T03:26:31.562Z,6.90
2018-04-08T03:29:54.004Z,6.90
2018-04-08T03:33:17.214Z,6.80
2018-04-08T03:36:39.659Z,6.80
2018-04-08T03:40:02.863Z,6.70
2018-04-08T03:43:25.307Z,6.80
2018-04-08T03:46:48.511Z,6.70
2018-04-08T03:50:10.962Z,6.70
2018-04-08T03:53:33.411Z,6.60
2018-04-08T03:56:56.625Z,6.60
2018-04-08T04:00:19.063Z,6.60
2018-04-08T04:03:42.272Z,6.60
2018-04-08T04:07:04.716Z,6.50
2018-04-08T04:10:27.931Z,6.50
2018-04-08T04:13:50.376Z,6.50
2018-04-08T04:17:12.815Z,6.50
2018-04-08T04:20:47.966Z,6.40
2018-04-08T04:24:22.455Z,6.40
2018-04-08T04:27:44.879Z,6.30
2018-04-08T04:31:07.323Z,6.30
2018-04-08T04:34:29.791Z,6.30
2018-04-08T04:37:52.232Z,6.30
2018-04-08T04:41:14.679Z,6.30
2018-04-08T04:44:37.118Z,6.30
2018-04-08T04:48:00.331Z,6.20
2018-04-08T04:51:22.776Z,6.20
2018-04-08T04:54:46.036Z,6.30
2018-04-08T04:58:08.563Z,6.20
2018-04-08T05:01:31.015Z,6.20
2018-04-08T05:04:53.455Z,6.20
2018-04-08T05:08:15.905Z,6.30
2018-04-08T05:11:39.172Z,6.20
2018-04-08T05:15:02.352Z,6.30
2018-04-08T05:18:24.792Z,6.30
2018-04-08T05:21:47.239Z,6.40
2018-04-08T05:25:09.683Z,6.40
2018-04-08T05:28:32.197Z,6.40
2018-04-08T05:31:54.638Z,6.50
2018-04-08T05:35:17.075Z,6.60
2018-04-08T05:38:40.295Z,6.80
2018-04-08T05:42:02.748Z,6.70
2018-04-08T05:45:25.198Z,6.90
2018-04-08T05:48:47.636Z,7.10
2018-04-08T05:52:10.083Z,7.30
2018-04-08T05:55:32.520Z,7.70
2018-04-08T05:58:55.004Z,8.10
2018-04-08T06:02:17.453Z,8.50
2018-04-08T06:05:39.895Z,8.90
2018-04-08T06:09:02.363Z,9.40
2018-04-08T06:12:24.807Z,9.70
2018-04-08T06:15:48.024Z,10.50
2018-04-08T06:19:10.469Z,10.50
2018-04-08T06:22:32.924Z,10.80
2018-04-08T06:25:56.190Z,11.30
2018-04-08T06:29:18.651Z,11.30
2018-04-08T06:32:41.869Z,11.80
2018-04-08T06:36:04.311Z,11.80
2018-04-08T06:39:27.524Z,12.40
2018-04-08T06:42:49.972Z,12.40
2018-04-08T06:46:12.448Z,12.70
2018-04-08T06:49:34.913Z,13.10
2018-04-08T06:52:57.359Z,13.30
2018-04-08T06:56:20.571Z,13.50
2018-04-08T06:59:43.034Z,13.40
2018-04-08T07:03:05.527Z,13.70
2018-04-08T07:06:27.992Z,13.90
2018-04-08T07:09:50.440Z,14.10
2018-04-08T07:13:12.888Z,14.20
2018-04-08T07:16:35.340Z,14.50
2018-04-08T07:19:57.784Z,14.80
2018-04-08T07:23:20.999Z,15.30
2018-04-08T07:26:43.456Z,15.30
2018-04-08T07:30:05.895Z,15.60
2018-04-08T07:33:29.218Z,15.90
2018-04-08T07:36:51.667Z,15.80
2018-04-08T07:40:14.120Z,16.20
2018-04-08T07:43:37.332Z,16.80
2018-04-08T07:46:59.790Z,16.80
2018-04-08T07:50:22.231Z,17.00
2018-04-08T07:53:45.443Z,17.30
2018-04-08T07:57:07.891Z,17.30
2018-04-08T08:00:31.256Z,17.60
2018-04-08T08:03:54.475Z,17.90
2018-04-08T08:07:16.924Z,17.90
2018-04-08T08:10:39.363Z,18.20
2018-04-08T08:14:02.586Z,18.70
2018-04-08T08:17:25.033Z,18.60
2018-04-08T08:20:48.238Z,19.10
2018-04-08T08:24:10.688Z,19.00
2018-04-08T08:27:33.135Z,19.20
2018-04-08T08:30:56.344Z,19.40
2018-04-08T08:34:18.816Z,19.40
2018-04-08T08:37:41.268Z,19.60
2018-04-08T08:41:03.712Z,19.80
2018-04-08T08:44:26.927Z,20.40
2018-04-08T08:47:49.371Z,20.40
2018-04-08T08:51:11.815Z,20.50
2018-04-08T08:54:34.259Z,20.60
2018-04-08T08:57:56.712Z,20.60
2018-04-08T09:01:19.148Z,20.80
2018-04-08T09:04:41.592Z,21.00
2018-04-08T09:08:04.803Z,21.50
2018-04-08T09:11:27.247Z,21.50
2018-04-08T09:14:49.712Z,21.70
2018-04-08T09:18:12.163Z,22.00
2018-04-08T09:21:41.127Z,22.10
2018-04-08T09:25:03.575Z,22.10
2018-04-08T09:28:26.032Z,22.10
2018-04-08T09:31:48.472Z,22.40
2018-04-08T09:35:11.698Z,22.50
2018-04-08T09:38:34.164Z,22.50
2018-04-08T09:41:56.607Z,22.50
2018-04-08T09:45:19.051Z,22.60
2018-04-08T09:48:42.272Z,23.10
2018-04-08T09:52:04.724Z,23.10
2018-04-08T09:55:27.180Z,23.30
2018-04-08T09:58:50.388Z,23.50
2018-04-08T10:06:12.403Z,23.50
2018-04-08T10:09:34.851Z,23.90
2018-04-08T10:12:57.292Z,24.00
2018-04-08T10:16:20.500Z,24.60
2018-04-08T10:19:42.952Z,24.60
2018-04-08T10:23:05.391Z,25.40
2018-04-08T10:26:28.604Z,26.80
2018-04-08T10:29:51.052Z,26.80
2018-04-08T10:33:14.274Z,27.80
2018-04-08T10:36:36.716Z,27.80
2018-04-08T10:39:59.184Z,28.20
2018-04-08T10:43:21.645Z,28.50
2018-04-08T10:46:44.091Z,29.00
2018-04-08T10:50:07.322Z,28.50
2018-04-08T10:53:29.760Z,28.50
2018-04-08T10:56:52.202Z,28.10
2018-04-08T11:00:15.419Z,27.30
2018-04-08T11:03:37.977Z,27.30
2018-04-08T11:07:00.399Z,27.20
2018-04-08T11:10:22.851Z,27.10
2018-04-08T11:13:45.296Z,26.80
2018-04-08T11:17:07.739Z,26.70
2018-04-08T11:20:30.188Z,26.40
2018-04-08T11:23:53.509Z,26.50
2018-04-08T11:27:15.952Z,26.40
2018-04-08T11:30:38.407Z,26.30
2018-04-08T11:34:00.852Z,26.30
2018-04-08T11:37:24.087Z,26.20
2018-04-08T11:40:47.307Z,26.40
2018-04-08T11:44:09.771Z,26.30
2018-04-08T11:47:32.303Z,26.10
2018-04-08T11:50:54.755Z,25.90
2018-04-08T11:54:17.204Z,25.90
2018-04-08T11:57:39.647Z,26.00
2018-04-08T12:01:02.865Z,26.40
2018-04-08T12:04:25.318Z,26.40
2018-04-08T12:07:47.756Z,26.20
2018-04-08T12:11:10.975Z,26.00
2018-04-08T12:14:33.534Z,26.00
2018-04-08T12:17:55.963Z,26.00
2018-04-08T12:21:18.412Z,26.20
2018-04-08T12:24:40.863Z,26.10
2018-04-08T12:28:03.308Z,25.80
2018-04-08T12:31:25.756Z,25.70
2018-04-08T12:34:48.204Z,25.80
2018-04-08T12:38:11.517Z,25.60
2018-04-08T12:41:33.956Z,25.60
2018-04-08T12:44:57.171Z,25.30
2018-04-08T12:48:19.615Z,25.30
2018-04-08T12:51:42.868Z,24.70
2018-04-08T12:55:05.280Z,24.70
2018-04-08T12:58:27.720Z,24.60
2018-04-08T13:01:50.939Z,24.40
2018-04-08T13:05:13.491Z,24.40
2018-04-08T13:08:35.928Z,24.20
2018-04-08T13:11:59.139Z,24.00
2018-04-08T13:15:21.603Z,24.00
2018-04-08T13:18:44.047Z,23.80
2018-04-08T13:22:07.303Z,23.50
2018-04-08T13:25:29.756Z,23.50
2018-04-08T13:28:52.204Z,23.50
2018-04-08T13:32:14.648Z,23.50
2018-04-08T13:35:37.191Z,23.30
2018-04-08T13:39:00.412Z,23.00
2018-04-08T13:42:22.879Z,23.00
2018-04-08T13:45:45.309Z,22.90
2018-04-08T13:49:08.519Z,22.70
2018-04-08T13:52:31.078Z,22.70
2018-04-08T13:55:53.542Z,22.70
2018-04-08T13:59:16.140Z,22.60
2018-04-08T14:02:38.701Z,22.60
2018-04-08T14:06:01.151Z,22.50
2018-04-08T14:09:23.612Z,22.60
2018-04-08T14:12:46.160Z,22.40
2018-04-08T14:16:09.376Z,22.40
2018-04-08T14:19:31.820Z,22.40
2018-04-08T14:22:54.332Z,22.40
2018-04-08T14:26:16.788Z,22.30
2018-04-08T14:29:39.236Z,22.30
2018-04-08T14:33:01.682Z,22.30
2018-04-08T14:36:24.139Z,22.20
2018-04-08T14:39:46.587Z,22.10
2018-04-08T14:43:09.796Z,22.10
2018-04-08T14:46:32.271Z,22.10
2018-04-08T14:49:55.467Z,21.80
2018-04-08T14:53:17.906Z,21.80
2018-04-08T14:56:40.356Z,21.80
2018-04-08T15:00:03.648Z,21.80
2018-04-08T15:03:26.094Z,21.80
2018-04-08T15:06:49.357Z,21.70
2018-04-08T15:10:11.755Z,21.70
2018-04-08T15:13:34.237Z,21.70
2018-04-08T15:16:56.669Z,21.60
2018-04-08T15:20:19.940Z,21.60
2018-04-08T15:23:42.380Z,21.60
2018-04-08T15:27:04.843Z,21.50
2018-04-08T15:30:27.304Z,21.40
2018-04-08T15:33:49.759Z,21.40
2018-04-08T15:37:12.253Z,21.30
2018-04-08T15:40:34.664Z,21.20
2018-04-08T15:43:57.108Z,21.10
2018-04-08T15:47:20.333Z,21.10
2018-04-08T15:50:42.785Z,21.10
2018-04-08T15:54:05.232Z,21.00
2018-04-08T15:57:28.454Z,20.90
2018-04-08T16:00:50.916Z,20.90
2018-04-08T16:04:13.423Z,20.80
2018-04-08T16:07:35.925Z,20.80
2018-04-08T16:10:58.369Z,20.80
2018-04-08T16:14:21.584Z,20.60
2018-04-08T16:17:44.046Z,20.60
2018-04-08T16:21:06.492Z,20.60
2018-04-08T16:24:28.936Z,20.50
2018-04-08T16:27:51.507Z,20.50
2018-04-08T16:31:14.399Z,20.40
2018-04-08T16:34:37.677Z,20.20
2018-04-08T16:38:00.192Z,20.20
2018-04-08T16:41:22.619Z,20.20
2018-04-08T16:44:45.108Z,20.10
2018-04-08T16:48:07.567Z,20.00
2018-04-08T16:51:30.012Z,20.00
2018-04-08T16:54:53.322Z,19.90
2018-04-08T16:58:15.755Z,19.90
2018-04-08T17:01:38.971Z,19.70
2018-04-08T17:05:01.431Z,19.70
2018-04-08T17:08:24.172Z,19.60
2018-04-08T17:11:47.532Z,19.50
2018-04-08T17:15:09.983Z,19.50
2018-04-08T17:18:32.439Z,19.40
2018-04-08T17:21:54.892Z,19.30
2018-04-08T17:25:17.507Z,19.20
2018-04-08T17:28:40.898Z,19.00
2018-04-08T17:32:04.179Z,18.90
2018-04-08T17:35:26.791Z,18.90
2018-04-08T17:38:49.264Z,18.80
2018-04-08T17:42:11.835Z,18.70
2018-04-08T17:45:34.288Z,18.60
2018-04-08T17:48:56.859Z,18.50
2018-04-08T17:52:19.423Z,18.40
2018-04-08T17:55:41.858Z,18.30
2018-04-08T17:59:05.103Z,18.10
2018-04-08T18:02:27.552Z,18.10
2018-04-08T18:05:50.003Z,18.00
2018-04-08T18:09:12.456Z,17.90
2018-04-08T18:12:34.932Z,17.80
2018-04-08T18:15:57.452Z,17.70
2018-04-08T18:19:19.958Z,17.60
2018-04-08T18:22:42.468Z,17.50
2018-04-08T18:26:05.140Z,17.40
2018-04-08T18:29:27.659Z,17.30
2018-04-08T18:32:56.485Z,17.20
2018-04-08T18:36:18.929Z,17.10
2018-04-08T18:39:42.263Z,16.90
2018-04-08T18:43:06.020Z,16.90
2018-04-08T18:46:28.635Z,16.90
2018-04-08T18:49:51.205Z,16.70
2018-04-08T18:53:14.454Z,16.60
2018-04-08T18:56:36.952Z,16.50
2018-04-08T18:59:59.380Z,16.50
2018-04-08T19:03:21.826Z,16.40
2018-04-08T19:06:45.033Z,16.30
2018-04-08T19:10:07.499Z,16.20
2018-04-08T19:13:29.941Z,16.10
2018-04-08T19:16:53.150Z,16.00
2018-04-08T19:20:15.592Z,16.00
2018-04-08T19:23:38.814Z,15.80
2018-04-08T19:27:01.254Z,15.80
2018-04-08T19:30:23.720Z,15.70
2018-04-08T19:33:46.171Z,15.60
2018-04-08T19:37:09.382Z,15.40
2018-04-08T19:40:31.822Z,15.30
2018-04-08T19:43:54.267Z,15.30
2018-04-08T19:47:17.539Z,15.10
2018-04-08T19:50:39.983Z,15.10
2018-04-08T19:54:02.491Z,15.00
2018-04-08T19:57:25.708Z,14.90
2018-04-08T20:00:48.165Z,14.90
2018-04-08T20:04:10.612Z,14.80
2018-04-08T20:07:33.084Z,14.80
2018-04-08T20:10:56.303Z,14.60
2018-04-08T20:14:18.845Z,14.60
2018-04-08T20:17:41.280Z,14.50
2018-04-08T20:21:04.484Z,14.40
2018-04-08T20:24:27.715Z,14.40
2018-04-08T20:27:50.160Z,14.40
2018-04-08T20:31:12.610Z,14.30
2018-04-08T20:34:35.046Z,14.20
2018-04-08T20:37:58.260Z,14.10
2018-04-08T20:41:20.704Z,14.10
2018-04-08T20:44:43.140Z,14.00
2018-04-08T20:48:05.584Z,13.90
2018-04-08T20:51:28.783Z,13.80
2018-04-08T20:54:51.235Z,13.80
2018-04-08T20:58:13.679Z,13.70
2018-04-08T21:01:36.118Z,13.70
2018-04-08T21:04:58.559Z,13.60
2018-04-08T21:08:21.768Z,13.50
2018-04-08T21:11:44.204Z,13.40
2018-04-08T21:15:07.424Z,13.30
2018-04-08T21:18:29.855Z,13.30
2018-04-08T21:21:53.064Z,13.20
2018-04-08T21:25:15.503Z,13.10
2018-04-08T21:28:38.723Z,13.00
2018-04-08T21:32:01.159Z,13.00
2018-04-08T21:35:24.387Z,12.80
2018-04-08T21:38:46.848Z,12.80
2018-04-08T21:42:09.289Z,12.80
2018-04-08T21:45:31.751Z,12.70
2018-04-08T21:48:54.963Z,12.50
2018-04-08T21:52:17.395Z,12.50
2018-04-08T21:55:39.839Z,12.40
2018-04-08T21:59:03.056Z,12.30
2018-04-08T22:02:25.496Z,12.30
2018-04-08T22:05:48.712Z,12.20
2018-04-08T22:09:11.191Z,12.20
2018-04-08T22:12:33.640Z,12.20
2018-04-08T22:15:56.095Z,12.10
2018-04-08T22:19:18.531Z,12.10
2018-04-08T22:22:41.750Z,12.00
2018-04-08T22:26:04.231Z,12.00
2018-04-08T22:29:26.675Z,12.00
2018-04-08T22:32:49.115Z,11.90
2018-04-08T22:36:12.323Z,11.90
2018-04-08T22:39:34.772Z,11.80
2018-04-08T22:42:57.207Z,11.80
2018-04-08T22:46:19.653Z,11.80
2018-04-08T22:49:42.199Z,11.70
2018-04-08T22:53:04.643Z,11.70
2018-04-08T22:56:27.084Z,11.60
2018-04-08T22:59:50.291Z,11.40
2018-04-08T23:03:12.744Z,11.40
2018-04-08T23:06:35.943Z,11.30
2018-04-08T23:09:58.385Z,11.30
2018-04-08T23:13:21.596Z,11.30
2018-04-08T23:16:44.031Z,11.20
2018-04-08T23:20:07.256Z,11.20
2018-04-08T23:23:29.732Z,11.20
2018-04-08T23:26:52.176Z,11.20
2018-04-08T23:30:14.630Z,11.20
2018-04-08T23:33:37.072Z,11.20
2018-04-08T23:37:00.377Z,11.10
2018-04-08T23:40:22.822Z,11.10
2018-04-08T23:43:46.035Z,11.00
2018-04-08T23:47:08.475Z,11.00
2018-04-08T23:50:30.926Z,10.90
2018-04-08T23:53:54.143Z,10.80
2018-04-08T23:57:16.601Z,10.70
